• Join FlightAware (Why Join?)
  • Login
  • US Flag 
09:59AM EST


 

Airport Tracker/Info


-or-


 

Live Flight TrackerFlight Track Log ✈ UCA3597 ✈ 06-Dec-2013 ✈ KBGM - KIAD

Flight Track Log - Related Links

Times and Time Zones

All times are in EST time to prevent confusion due to time zone crossing. See the UCA3597 flight status page for this flight to view local times or setup timezone preferences in your user account.

Time Position Orientation Groundspeed Altitude Reporting Facility
EST Latitude Longitude Course Direction KTS MPH feet Rate Location/Type
07:34PM 42.2122 -76.0428 204° Southwest 170 196 4,400  Level New York Center
07:35PM 42.1675 -76.0700 204° Southwest 180 207 6,200 1,740 Climbing New York Center
07:37PM 42.0917 -76.1367 213° Southwest 173 199 9,700 1,620 Climbing New York Center
07:38PM 42.0503 -76.1722 213° Southwest 173 199 11,100 1,560 Climbing New York Center
07:39PM 42.0092 -76.2081 213° Southwest 183 211 12,900 2,100 Climbing New York Center
07:40PM 41.9722 -76.2414 214° Southwest 161 185 15,400 1,500 Climbing New York Center
07:41PM 41.9378 -76.2664 208° Southwest 140 161 15,900 240 Climbing New York Center
07:42PM 41.9028 -76.3025 218° Southwest 156 180 15,900  Level New York Center
07:43PM 41.8639 -76.3325 210° Southwest 177 204 15,900  Level New York Center
07:44PM 41.8206 -76.3678 211° Southwest 177 204 15,900  Level New York Center
07:45PM 41.7794 -76.4033 213° Southwest 177 204 16,000  Climbing New York Center
07:46PM 41.7336 -76.4439 213° Southwest 182 209 16,000  Level New York Center
07:47PM 41.6947 -76.4742 210° Southwest 182 209 16,000  Level New York Center
07:48PM 41.6536 -76.5094 213° Southwest 177 204 16,000  Level New York Center
07:49PM 41.6103 -76.5444 211° Southwest 177 204 16,000  Level New York Center
07:50PM 41.5689 -76.5797 213° Southwest 177 204 16,000  Level New York Center
07:51PM 41.5253 -76.6175 213° Southwest 177 204 16,000  Level New York Center
07:52PM 41.4883 -76.6475 211° Southwest 177 204 16,000  Level New York Center
07:53PM 41.4494 -76.6803 212° Southwest 177 204 16,000  Level New York Center
07:54PM 41.4078 -76.7181 214° Southwest 177 204 16,000  Level New York Center
07:55PM 41.3686 -76.7533 214° Southwest 177 204 16,000  Level New York Center
07:56PM 41.3256 -76.7825 207° Southwest 177 204 16,000  Level New York Center
07:57PM 41.2625 -76.7908 186° South 182 209 16,000  Level New York Center
07:58PM 41.2078 -76.8025 189° South 193 222 16,000  Level New York Center
07:59PM 41.1531 -76.8142 189° South 199 229 16,000  Level New York Center
08:00PM 41.0961 -76.8256 189° South 199 229 16,000  Level New York Center
08:01PM 41.0414 -76.8372 189° South 199 229 16,000  Level New York Center
08:02PM 40.9847 -76.8458 187° South 204 235 16,000  Level New York Center
08:03PM 40.9297 -76.8603 191° South 204 235 16,000  Level New York Center
08:04PM 40.8772 -76.8667 185° South 204 235 16,000  Level New York Center
08:05PM 40.8139 -76.8828 191° South 210 242 16,000  Level New York Center
08:06PM 40.7614 -76.8947 190° South 215 247 16,000  Level New York Center
08:07PM 40.7039 -76.9142 194° South 210 242 16,000  Level New York Center
08:08PM 40.6553 -76.9289 193° South 204 235 16,000  Level New York Center
08:09PM 40.5981 -76.9456 192° South 204 235 16,000  Level New York Center
08:10PM 40.5494 -76.9603 193° South 204 235 16,000  Level New York Center
08:11PM 40.4900 -76.9797 194° South 204 235 16,000 -240 Level New York Center
08:13PM 40.4000 -77.0000 190° South 191 220 15,500 -480 Descending Potomac TRACON
08:14PM 40.3500 -77.0167 194° South 194 223 14,800 -660 Descending Potomac TRACON
08:15PM 40.3000 -77.0333 194° South 202 232 14,200 -600 Descending Potomac TRACON
08:16PM 40.2500 -77.0500 194° South 202 232 13,600 -600 Descending Potomac TRACON
08:17PM 40.2000 -77.0667 194° South 200 230 13,100 -600 Descending Potomac TRACON
08:18PM 40.1500 -77.0833 194° South 202 232 12,500 -600 Descending Potomac TRACON
08:19PM 40.1000 -77.1000 194° South 199 229 11,900 -600 Descending Potomac TRACON
08:20PM 40.0333 -77.1167 191° South 202 232 11,300 -600 Descending Potomac TRACON
08:21PM 39.9833 -77.1333 194° South 209 241 10,700 -600 Descending Potomac TRACON
08:22PM 39.9333 -77.1667 207° Southwest 205 236 10,100 -600 Descending Potomac TRACON
08:23PM 39.8667 -77.2000 201° Southwest 208 239 9,500 -600 Descending Potomac TRACON
08:24PM 39.8167 -77.2167 194° South 224 258 8,900 -600 Descending Potomac TRACON
08:25PM 39.7500 -77.2333 191° South 238 274 8,300 -600 Descending Potomac TRACON
08:26PM 39.6833 -77.2500 191° South 240 276 7,700 -600 Descending Potomac TRACON
08:27PM 39.6167 -77.2500 180° South 233 268 7,100 -600 Descending Potomac TRACON
08:28PM 39.5500 -77.2667 191° South 234 269 6,500 -660 Descending Potomac TRACON
08:29PM 39.4833 -77.2833 191° South 229 264 5,800 -720 Descending Potomac TRACON
08:30PM 39.4167 -77.3000 191° South 231 266 5,100 -660 Descending Potomac TRACON
08:31PM 39.3500 -77.3167 191° South 248 285 4,500 -600 Descending Potomac TRACON
08:32PM 39.2833 -77.3333 191° South 249 287 4,000 -240 Descending Potomac TRACON
08:33PM 39.2167 -77.3500 191° South 244 281 4,000 -60 Level Potomac TRACON
08:34PM 39.1500 -77.3667 191° South 245 282 3,900 -60 Descending Potomac TRACON
08:35PM 39.0667 -77.3500 171° South 245 282 3,900  Level Potomac TRACON
08:36PM 39.0000 -77.3500 180° South 247 284 3,900  Level Potomac TRACON
08:37PM 38.9333 -77.3500 180° South 248 285 3,900  Level Potomac TRACON
08:38PM 38.8667 -77.3500 180° South 245 282 3,900 -180 Level Potomac TRACON
08:39PM 38.8000 -77.3667 191° South 235 270 3,600 -600 Descending Potomac TRACON
08:40PM 38.7333 -77.3667 180° South 232 267 2,800 -900 Descending Potomac TRACON
08:41PM 38.7000 -77.4167 230° Southwest 250 288 2,000 -480 Descending Potomac TRACON
08:42PM 38.7500 -77.4333 345° North 169 194 1,900 -60 Descending Potomac TRACON
08:43PM 38.8000 -77.4333 360° North 166 191 1,900  Level Potomac TRACON
08:44PM 38.8500 -77.4333 360° North 160 184 1,900 -360 Level Potomac TRACON
08:45PM 38.8833 -77.4333 360° North 118 136 1,200 -660 Descending Potomac TRACON
08:46PM 38.9167 -77.4333 360° North 105 121 600 -600 Descending Potomac TRACON